Time;durP1;ratioP1;P1;durP2;ratioP2;P2;SDS_P1;SDS_P2;PMS_P1;PMS_P2;Temp;Humidity;BMP_temperature;BMP_pressure;BME280_temperature;BME280_humidity;BME280_pressure;Samples;Min_cycle;Max_cycle;Signal;HPM_P1;HPM_P2
2022/07/22 00:02:22;;;;;;;6.85;3.28;;;;;;;23.49;nan;-24468.91;4977211;28;20189;-64
2022/07/22 00:04:48;;;;;;;5.30;3.33;;;;;;;23.57;nan;-24471.25;4978953;28;20179;-62
2022/07/22 00:07:14;;;;;;;5.70;3.22;;;;;;;23.49;nan;-24469.03;4979625;28;20223;-65
2022/07/22 00:09:40;;;;;;;6.55;3.38;;;;;;;23.35;nan;-24465.19;4979734;28;20228;-64
2022/07/22 00:12:06;;;;;;;6.25;3.40;;;;;;;23.31;nan;-24464.19;5006058;28;20704;-63
2022/07/22 00:14:32;;;;;;;5.57;3.10;;;;;;;23.39;nan;-24466.13;4980124;28;20182;-63
2022/07/22 00:16:57;;;;;;;6.28;3.20;;;;;;;23.34;nan;-24465.03;4980767;28;20191;-64
2022/07/22 00:19:24;;;;;;;4.72;3.45;;;;;;;23.38;nan;-24465.88;4980289;28;20260;-60
2022/07/22 00:21:51;;;;;;;5.47;3.05;;;;;;;23.04;nan;-24456.59;4974332;28;20212;-63
2022/07/22 00:24:16;;;;;;;4.68;3.28;;;;;;;23.17;nan;-24460.34;4980180;28;20184;-60
2022/07/22 00:26:42;;;;;;;5.60;3.45;;;;;;;23.26;nan;-24462.69;4976422;28;20172;-63
2022/07/22 00:29:07;;;;;;;7.13;3.50;;;;;;;23.37;nan;-24465.59;4977853;28;20222;-66
2022/07/22 00:31:33;;;;;;;4.38;2.92;;;;;;;23.28;nan;-24463.25;4976497;28;20276;-61
2022/07/22 00:34:01;;;;;;;3.67;2.83;;;;;;;23.10;nan;-24458.41;4978256;28;20656;-62
2022/07/22 00:36:28;;;;;;;4.85;3.20;;;;;;;23.06;nan;-24457.31;4979090;28;20188;-62
2022/07/22 00:38:53;;;;;;;7.03;3.80;;;;;;;22.76;nan;-24449.00;4975299;28;20263;-66
2022/07/22 00:41:19;;;;;;;3.92;3.20;;;;;;;22.83;nan;-24450.94;4982034;28;20189;-63
2022/07/22 00:44:02;;;;;;;4.03;3.00;;;;;;;22.56;nan;-24443.59;4978692;28;20641;-64
2022/07/22 00:46:29;;;;;;;6.40;3.47;;;;;;;22.58;nan;-24444.16;4979908;28;20209;-62
2022/07/22 00:48:56;;;;;;;5.18;3.30;;;;;;;22.63;nan;-24445.41;4977059;28;20612;-65
2022/07/22 00:51:22;;;;;;;5.53;3.20;;;;;;;22.23;nan;-24434.47;4977656;28;20212;-64
2022/07/22 00:53:49;;;;;;;4.20;2.97;;;;;;;22.33;nan;-24437.25;4973309;28;20177;-63
2022/07/22 00:56:15;;;;;;;6.20;3.60;;;;;;;22.35;nan;-24437.78;4995675;28;20188;-63
2022/07/22 00:58:42;;;;;;;4.70;3.17;;;;;;;22.15;nan;-24432.25;4978789;28;20177;-63
2022/07/22 01:01:07;;;;;;;5.03;3.40;;;;;;;22.25;nan;-24435.03;4975227;28;20231;-65
2022/07/22 01:03:33;;;;;;;5.75;3.33;;;;;;;22.18;nan;-24433.09;4977543;28;20181;-63
2022/07/22 01:05:58;;;;;;;4.47;2.95;;;;;;;22.17;nan;-24432.81;4975453;28;20220;-62
2022/07/22 01:08:26;;;;;;;6.43;3.50;;;;;;;22.11;nan;-24431.16;4980178;28;20209;-64
2022/07/22 01:10:52;;;;;;;4.07;2.83;;;;;;;21.87;nan;-24424.78;5003910;28;20304;-62
2022/07/22 01:13:17;;;;;;;7.05;3.78;;;;;;;22.14;nan;-24432.13;4973997;28;20268;-65
2022/07/22 01:15:43;;;;;;;4.88;3.15;;;;;;;21.93;nan;-24426.31;4976846;28;20169;-65
2022/07/22 01:18:11;;;;;;;6.18;3.35;;;;;;;22.20;nan;-24433.66;4975584;28;20185;-62
2022/07/22 01:20:38;;;;;;;4.35;3.10;;;;;;;22.14;nan;-24432.13;4976016;28;20260;-63
2022/07/22 01:23:04;;;;;;;4.97;3.17;;;;;;;21.95;nan;-24426.88;4974050;28;20221;-61
2022/07/22 01:25:30;;;;;;;4.35;3.20;;;;;;;22.09;nan;-24430.75;4974163;28;20185;-64
2022/07/22 01:27:55;;;;;;;4.93;2.90;;;;;;;22.11;nan;-24431.16;4974656;28;20231;-61
2022/07/22 01:30:21;;;;;;;5.05;3.20;;;;;;;21.79;nan;-24422.56;4976873;28;20208;-62
2022/07/22 01:32:46;;;;;;;5.50;3.13;;;;;;;21.98;nan;-24427.84;4976336;28;20275;-64
2022/07/22 01:35:12;;;;;;;5.40;3.55;;;;;;;22.08;nan;-24430.47;4984344;28;20585;-62
2022/07/22 01:37:37;;;;;;;7.53;3.40;;;;;;;21.81;nan;-24422.97;4985374;28;20179;-64
2022/07/22 01:40:04;;;;;;;4.95;3.28;;;;;;;22.06;nan;-24429.78;4982198;28;20220;-64
2022/07/22 01:42:29;;;;;;;5.53;3.55;;;;;;;21.83;nan;-24423.69;4985337;28;20661;-63
2022/07/22 01:44:55;;;;;;;5.10;3.30;;;;;;;21.89;nan;-24425.34;4983271;28;20185;-61
2022/07/22 01:47:20;;;;;;;6.75;3.90;;;;;;;21.83;nan;-24423.69;4985300;28;20212;-63
2022/07/22 01:49:46;;;;;;;6.53;4.15;;;;;;;21.55;nan;-24415.91;4983341;28;20236;-62
2022/07/22 01:52:11;;;;;;;5.43;3.92;;;;;;;21.76;nan;-24421.75;4982424;28;20200;-63
2022/07/22 01:54:37;;;;;;;4.72;3.50;;;;;;;21.69;nan;-24419.66;4988954;28;20177;-60
2022/07/22 01:57:03;;;;;;;3.88;2.80;;;;;;;21.69;nan;-24419.66;4983223;28;20188;-62
2022/07/22 01:59:28;;;;;;;5.68;3.60;;;;;;;21.73;nan;-24420.91;4985406;28;20180;-62
2022/07/22 02:01:53;;;;;;;5.30;3.70;;;;;;;21.37;nan;-24411.06;4983313;28;20687;-63
2022/07/22 02:04:19;;;;;;;5.88;3.55;;;;;;;21.50;nan;-24414.53;4982442;28;20177;-61
2022/07/22 02:06:44;;;;;;;5.72;3.33;;;;;;;21.41;nan;-24412.03;4983161;28;20207;-63
2022/07/22 02:09:10;;;;;;;4.72;3.33;;;;;;;21.12;nan;-24404.13;4983444;28;20209;-62
2022/07/22 02:11:36;;;;;;;7.45;3.70;;;;;;;21.33;nan;-24409.81;4984585;28;20180;-61
2022/07/22 02:14:02;;;;;;;6.40;3.60;;;;;;;21.25;nan;-24407.75;4983489;28;20271;-63
2022/07/22 02:16:28;;;;;;;7.13;3.67;;;;;;;21.07;nan;-24402.88;4984944;28;20235;-61
2022/07/22 02:18:54;;;;;;;5.80;4.15;;;;;;;21.07;nan;-24402.88;4983300;28;20574;-64
2022/07/22 02:21:19;;;;;;;6.00;3.70;;;;;;;20.97;nan;-24399.97;4983115;28;20189;-62
2022/07/22 02:23:45;;;;;;;6.22;3.50;;;;;;;20.78;nan;-24394.84;4981919;28;20219;-64
2022/07/22 02:26:10;;;;;;;5.47;3.75;;;;;;;20.66;nan;-24391.50;4985464;28;20562;-64
2022/07/22 02:28:36;;;;;;;8.18;3.80;;;;;;;20.92;nan;-24398.59;4984551;28;20335;-64
2022/07/22 02:31:02;;;;;;;6.65;3.78;;;;;;;20.92;nan;-24398.59;4985460;28;20723;-63
2022/07/22 02:33:29;;;;;;;7.65;4.20;;;;;;;20.84;nan;-24396.38;4979462;28;20218;-64
2022/07/22 02:35:55;;;;;;;6.43;4.10;;;;;;;20.84;nan;-24396.38;4982435;28;20195;-61
2022/07/22 02:38:21;;;;;;;6.90;4.00;;;;;;;20.74;nan;-24393.72;4984827;28;20275;-61
2022/07/22 02:40:46;;;;;;;5.78;3.92;;;;;;;20.67;nan;-24391.78;4983508;28;20182;-63
2022/07/22 02:43:11;;;;;;;7.18;4.35;;;;;;;20.39;nan;-24384.16;4986626;28;20185;-64
2022/07/22 02:45:37;;;;;;;8.60;4.97;;;;;;;20.77;nan;-24394.56;4982449;28;20272;-64
2022/07/22 02:48:03;;;;;;;6.25;4.18;;;;;;;20.55;nan;-24388.59;4980362;28;20181;-61
2022/07/22 02:50:28;;;;;;;5.75;4.00;;;;;;;20.56;nan;-24388.88;4981970;28;20200;-62
2022/07/22 02:52:54;;;;;;;5.93;4.00;;;;;;;20.79;nan;-24395.13;4975889;28;20185;-63
2022/07/22 02:55:19;;;;;;;6.40;4.22;;;;;;;20.85;nan;-24396.66;4981195;28;20180;-61
2022/07/22 02:57:45;;;;;;;5.85;3.70;;;;;;;20.62;nan;-24390.53;4980842;28;20230;-63
2022/07/22 03:00:12;;;;;;;6.82;4.15;;;;;;;20.48;nan;-24386.53;4980190;28;20181;-65
2022/07/22 03:02:38;;;;;;;5.03;3.92;;;;;;;20.55;nan;-24388.59;4981683;28;20264;-62
2022/07/22 03:05:05;;;;;;;8.13;4.55;;;;;;;20.75;nan;-24393.88;4979878;28;20191;-62
2022/07/22 03:07:31;;;;;;;9.65;4.57;;;;;;;20.63;nan;-24390.69;4981741;28;20184;-62
2022/07/22 03:09:57;;;;;;;8.02;4.78;;;;;;;20.78;nan;-24394.84;4978862;28;20212;-62
2022/07/22 03:12:22;;;;;;;8.48;4.22;;;;;;;20.49;nan;-24386.78;4984284;28;20232;-63
2022/07/22 03:14:47;;;;;;;8.45;4.20;;;;;;;20.58;nan;-24389.44;4994911;28;20193;-63
2022/07/22 03:17:13;;;;;;;5.53;3.97;;;;;;;20.76;nan;-24394.16;4980362;28;20196;-62
2022/07/22 03:19:38;;;;;;;7.03;4.45;;;;;;;21.03;nan;-24401.63;4981070;28;20191;-64
2022/07/22 03:22:04;;;;;;;5.25;3.85;;;;;;;21.01;nan;-24401.22;4979285;28;20220;-64
2022/07/22 03:24:29;;;;;;;11.55;4.63;;;;;;;21.54;nan;-24415.78;4975003;28;20641;-63
2022/07/22 03:26:55;;;;;;;8.27;4.38;;;;;;;21.91;nan;-24425.91;4978119;28;20211;-64
2022/07/22 03:29:20;;;;;;;8.52;4.63;;;;;;;21.97;nan;-24427.56;4977816;28;20204;-60
2022/07/22 03:31:46;;;;;;;5.68;4.22;;;;;;;22.55;nan;-24443.34;4977550;28;20656;-61
2022/07/22 03:34:11;;;;;;;8.15;4.75;;;;;;;23.06;nan;-24457.31;4975954;28;20188;-62
2022/07/22 03:36:37;;;;;;;6.70;4.13;;;;;;;23.48;nan;-24468.78;4976541;28;20588;-62
2022/07/22 03:39:02;;;;;;;6.97;4.05;;;;;;;23.97;nan;-24482.00;4974166;28;20220;-62
2022/07/22 03:41:28;;;;;;;7.90;4.30;;;;;;;24.52;nan;-24497.19;4976997;28;20287;-64
2022/07/22 03:43:53;;;;;;;6.90;4.22;;;;;;;24.99;nan;-24509.84;4977090;28;20177;-65
2022/07/22 03:46:19;;;;;;;8.05;4.68;;;;;;;25.71;nan;-24529.41;4976842;28;20613;-65
2022/07/22 03:48:44;;;;;;;9.77;5.25;;;;;;;26.41;nan;-24548.38;4976303;28;20231;-63
2022/07/22 03:51:10;;;;;;;9.35;4.78;;;;;;;26.89;nan;-24561.56;4976153;28;20208;-64
2022/07/22 03:53:36;;;;;;;9.38;5.20;;;;;;;27.03;nan;-24565.38;4977145;28;20927;-62
2022/07/22 03:56:01;;;;;;;8.77;5.10;;;;;;;23.34;nan;-24464.91;4972886;28;20235;-63
2022/07/22 03:58:27;;;;;;;7.22;4.63;;;;;;;23.34;nan;-24464.91;4976995;28;20555;-63
2022/07/22 04:00:54;;;;;;;6.13;4.15;;;;;;;28.21;nan;-24597.19;4977227;28;20670;-63
2022/07/22 04:03:19;;;;;;;8.55;5.03;;;;;;;26.71;nan;-24556.75;4976809;28;20270;-64
2022/07/22 04:05:45;;;;;;;12.57;5.70;;;;;;;26.71;nan;-24556.75;4976175;28;20629;-60
2022/07/22 04:08:11;;;;;;;8.27;4.88;;;;;;;29.98;nan;-24645.13;4978147;28;20180;-64
2022/07/22 04:10:37;;;;;;;10.68;5.38;;;;;;;30.29;nan;-24653.44;4978423;28;20209;-64
2022/07/22 04:13:02;;;;;;;9.18;5.68;;;;;;;30.58;nan;-24661.22;4975561;28;20686;-62
2022/07/22 04:15:28;;;;;;;8.93;5.22;;;;;;;31.21;nan;-24678.09;4978227;28;21072;-61
2022/07/22 04:17:53;;;;;;;11.90;5.68;;;;;;;31.32;nan;-24681.22;5007738;28;20723;-62
2022/07/22 04:20:19;;;;;;;11.57;6.28;;;;;;;31.40;nan;-24683.41;4992626;28;20711;-63
2022/07/22 04:22:44;;;;;;;8.43;5.88;;;;;;;31.74;nan;-24692.50;4975726;28;20189;-64
2022/07/22 04:25:10;;;;;;;9.25;5.45;;;;;;;;;;4974867;28;20215;-64
2022/07/22 04:27:35;;;;;;;8.60;6.13;;;;;;;;;;4973489;28;20213;-63
2022/07/22 04:30:01;;;;;;;9.30;5.93;;;;;;;31.93;nan;-24697.53;4975637;28;20233;-66
2022/07/22 04:32:27;;;;;;;7.57;5.63;;;;;;;32.14;nan;-24703.25;4978443;28;20652;-67
2022/07/22 04:34:52;;;;;;;8.85;5.80;;;;;;;;;;4973515;28;20772;-64
2022/07/22 04:37:18;;;;;;;9.23;6.00;;;;;;;;;;4974389;28;20192;-66
2022/07/22 04:39:43;;;;;;;11.68;5.72;;;;;;;32.78;nan;-24720.47;4975990;28;20716;-67
2022/07/22 04:42:09;;;;;;;8.93;6.10;;;;;;;32.68;nan;-24717.63;4976596;28;20192;-64
2022/07/22 04:44:34;;;;;;;10.52;6.32;;;;;;;32.63;nan;-24716.28;4976809;28;20195;-62
2022/07/22 04:47:00;;;;;;;9.55;5.70;;;;;;;32.44;nan;-24711.38;4974531;28;20180;-64
2022/07/22 04:49:25;;;;;;;8.88;5.78;;;;;;;27.73;nan;-24584.31;4976834;28;20762;-64
2022/07/22 04:51:51;;;;;;;8.55;5.47;;;;;;;32.42;nan;-24710.84;4974746;28;21573;-61
2022/07/22 04:54:17;;;;;;;9.00;5.55;;;;;;;32.82;nan;-24721.56;4975524;28;20184;-65
2022/07/22 04:56:42;;;;;;;8.27;5.68;;;;;;;32.15;nan;-24703.38;4973217;28;20196;-63
2022/07/22 04:59:08;;;;;;;8.35;5.50;;;;;;;32.15;nan;-24703.38;4973634;28;20522;-64
2022/07/22 05:01:34;;;;;;;10.40;6.22;;;;;;;26.47;nan;-24550.16;4974980;28;20573;-61
2022/07/22 05:03:59;;;;;;;11.20;6.70;;;;;;;31.61;nan;-24688.84;4972083;28;20178;-61
2022/07/22 05:06:24;;;;;;;10.75;7.40;;;;;;;31.27;nan;-24679.72;4972696;28;20601;-61
2022/07/22 05:08:50;;;;;;;12.07;7.32;;;;;;;30.67;nan;-24663.66;4975289;28;20180;-64
2022/07/22 05:11:15;;;;;;;11.30;6.88;;;;;;;30.46;nan;-24658.09;4973882;28;20712;-62
2022/07/22 05:13:41;;;;;;;11.63;6.72;;;;;;;30.41;nan;-24656.72;4975382;28;20177;-60
2022/07/22 05:16:07;;;;;;;11.23;6.20;;;;;;;30.39;nan;-24656.03;4975275;28;20218;-62
2022/07/22 05:18:34;;;;;;;12.25;6.47;;;;;;;30.80;nan;-24667.22;4973030;28;20180;-63
2022/07/22 05:21:00;;;;;;;12.77;7.38;;;;;;;30.73;nan;-24665.31;4974590;28;20551;-62
2022/07/22 05:23:25;;;;;;;11.95;7.55;;;;;;;30.71;nan;-24664.75;4974870;28;20179;-64
2022/07/22 05:25:51;;;;;;;14.02;7.50;;;;;;;30.98;nan;-24671.97;4976205;28;20279;-63
2022/07/22 05:28:16;;;;;;;11.32;6.90;;;;;;;30.88;nan;-24669.25;4974125;28;20191;-62
2022/07/22 05:30:41;;;;;;;12.52;7.50;;;;;;;30.97;nan;-24671.84;4973137;28;20702;-63
2022/07/22 05:33:08;;;;;;;10.02;6.47;;;;;;;31.05;nan;-24673.88;4975398;28;20188;-64
2022/07/22 05:35:33;;;;;;;11.48;7.35;;;;;;;31.10;nan;-24675.38;4975449;28;20674;-63
2022/07/22 05:37:59;;;;;;;13.13;7.15;;;;;;;31.00;nan;-24672.53;4976163;28;20177;-64
2022/07/22 05:40:24;;;;;;;11.90;6.50;;;;;;;30.62;nan;-24662.44;4975908;28;20288;-62
2022/07/22 05:42:50;;;;;;;11.13;6.70;;;;;;;30.21;nan;-24651.28;4978910;28;20177;-62
2022/07/22 05:45:15;;;;;;;9.68;6.35;;;;;;;29.78;nan;-24639.69;4977645;28;20177;-63
2022/07/22 05:47:41;;;;;;;16.58;8.05;;;;;;;29.75;nan;-24639.00;4974185;28;20187;-60
2022/07/22 05:50:06;;;;;;;12.65;8.02;;;;;;;29.19;nan;-24623.69;4976952;28;20201;-63
2022/07/22 05:52:35;;;;;;;13.15;7.75;;;;;;;28.83;nan;-24614.13;4978854;28;20189;-63
2022/07/22 05:55:00;;;;;;;14.68;7.72;;;;;;;28.63;nan;-24608.66;4975944;28;20178;-64
2022/07/22 05:57:26;;;;;;;13.38;7.53;;;;;;;28.53;nan;-24605.94;4977649;28;20195;-62
2022/07/22 05:59:51;;;;;;;13.73;7.65;;;;;;;28.19;nan;-24596.63;4971875;28;20530;-60
2022/07/22 06:02:16;;;;;;;12.35;7.75;;;;;;;28.27;nan;-24598.97;4980275;28;20730;-62
2022/07/22 06:04:42;;;;;;;14.30;7.90;;;;;;;28.23;nan;-24597.88;4978524;28;20200;-62
2022/07/22 06:07:07;;;;;;;12.95;6.85;;;;;;;28.00;nan;-24591.56;4977463;28;20571;-63
2022/07/22 06:09:33;;;;;;;13.48;6.68;;;;;;;28.29;nan;-24599.50;4978884;28;20698;-62
2022/07/22 06:11:58;;;;;;;11.70;7.07;;;;;;;28.05;nan;-24592.94;4985891;28;20197;-63
2022/07/22 06:14:24;;;;;;;14.57;7.60;;;;;;;28.25;nan;-24598.28;4979340;28;20196;-62
2022/07/22 06:16:49;;;;;;;13.20;7.80;;;;;;;27.97;nan;-24590.75;4976930;28;20244;-64
2022/07/22 06:19:15;;;;;;;11.98;7.25;;;;;;;27.67;nan;-24582.66;4977427;28;20653;-61
2022/07/22 06:21:40;;;;;;;9.70;6.85;;;;;;;28.02;nan;-24592.25;4981502;28;20238;-63
2022/07/22 06:24:06;;;;;;;11.95;7.03;;;;;;;28.02;nan;-24592.25;4980947;28;20189;-64
2022/07/22 06:26:32;;;;;;;8.52;6.18;;;;;;;28.20;nan;-24597.03;4982659;28;20567;-62
2022/07/22 06:28:57;;;;;;;13.68;7.47;;;;;;;27.93;nan;-24589.78;4980102;28;20214;-63
2022/07/22 06:31:23;;;;;;;11.00;7.07;;;;;;;27.82;nan;-24586.78;4982576;28;20661;-63
2022/07/22 06:33:48;;;;;;;13.52;7.18;;;;;;;27.82;nan;-24586.78;4980867;28;20634;-62
2022/07/22 06:36:14;;;;;;;11.35;6.85;;;;;;;27.56;nan;-24579.78;4981110;28;20795;-61
2022/07/22 06:38:40;;;;;;;11.85;7.10;;;;;;;27.76;nan;-24585.13;4981437;28;20221;-62
2022/07/22 06:41:05;;;;;;;14.82;7.00;;;;;;;27.93;nan;-24589.66;4980480;28;20192;-62
2022/07/22 06:43:32;;;;;;;10.88;6.57;;;;;;;28.01;nan;-24591.97;5009286;28;20201;-63
2022/07/22 06:45:57;;;;;;;10.13;5.82;;;;;;;28.01;nan;-24591.97;4994489;28;20653;-63
2022/07/22 06:48:23;;;;;;;9.98;6.32;;;;;;;28.31;nan;-24599.91;4982689;28;20178;-64
2022/07/22 06:50:48;;;;;;;12.07;6.50;;;;;;;28.35;nan;-24601.16;4979492;28;20201;-60
2022/07/22 06:53:14;;;;;;;11.20;6.70;;;;;;;28.60;nan;-24607.72;4980789;28;20577;-63
2022/07/22 06:55:39;;;;;;;10.88;5.95;;;;;;;28.28;nan;-24599.22;4981417;28;20184;-62
2022/07/22 06:58:05;;;;;;;9.07;6.20;;;;;;;28.50;nan;-24605.13;4980082;28;20181;-63
2022/07/22 07:00:30;;;;;;;10.00;6.28;;;;;;;28.80;nan;-24613.31;4981512;28;20272;-61
2022/07/22 07:02:59;;;;;;;9.50;5.78;;;;;;;28.99;nan;-24618.50;4981914;28;20208;-61
2022/07/22 07:05:27;;;;;;;12.35;6.32;;;;;;;28.91;nan;-24616.19;4983364;28;20214;-61
2022/07/22 07:07:53;;;;;;;10.93;5.55;;;;;;;28.91;nan;-24616.19;4981732;28;20173;-62
2022/07/22 07:10:18;;;;;;;7.80;5.07;;;;;;;28.97;nan;-24617.81;4981054;28;20698;-62
2022/07/22 07:12:44;;;;;;;8.25;5.35;;;;;;;29.30;nan;-24626.72;4980803;28;20676;-66
2022/07/22 07:15:10;;;;;;;7.72;5.22;;;;;;;29.17;nan;-24623.28;4981795;28;20268;-63
2022/07/22 07:17:36;;;;;;;9.63;6.05;;;;;;;29.17;nan;-24623.28;4981438;28;20542;-63
2022/07/22 07:20:02;;;;;;;8.30;5.60;;;;;;;29.24;nan;-24625.19;4979259;28;20209;-63
2022/07/22 07:22:28;;;;;;;8.30;5.65;;;;;;;29.05;nan;-24620.00;4981766;28;20193;-61
2022/07/22 07:24:53;;;;;;;7.57;5.25;;;;;;;29.39;nan;-24629.16;4978937;28;20244;-64
2022/07/22 07:27:19;;;;;;;10.13;5.82;;;;;;;29.17;nan;-24623.16;4981108;28;20189;-62
2022/07/22 07:29:45;;;;;;;8.27;5.45;;;;;;;29.17;nan;-24623.16;4980406;28;20212;-60
2022/07/22 07:32:11;;;;;;;9.80;5.63;;;;;;;29.45;nan;-24630.81;4979553;28;20182;-63
2022/07/22 07:34:36;;;;;;;8.15;5.45;;;;;;;29.02;nan;-24619.06;4981354;28;20184;-62
2022/07/22 07:37:02;;;;;;;9.88;5.68;;;;;;;28.99;nan;-24618.38;4979308;28;20179;-61
2022/07/22 07:39:27;;;;;;;10.50;5.50;;;;;;;29.12;nan;-24621.78;4980701;28;20225;-63
2022/07/22 07:41:53;;;;;;;9.55;5.70;;;;;;;29.15;nan;-24622.59;4979500;28;20240;-63
2022/07/22 07:44:18;;;;;;;6.90;5.00;;;;;;;28.84;nan;-24614.41;4980659;28;20647;-64
2022/07/22 07:46:44;;;;;;;9.50;5.90;;;;;;;29.08;nan;-24620.69;4979560;28;20180;-60
2022/07/22 07:49:10;;;;;;;9.15;5.70;;;;;;;28.87;nan;-24615.22;4977901;28;20185;-61
2022/07/22 07:51:35;;;;;;;10.15;6.10;;;;;;;29.07;nan;-24620.56;4981365;28;20247;-62
2022/07/22 07:54:02;;;;;;;8.27;5.30;;;;;;;29.27;nan;-24626.03;4979348;28;20193;-63
2022/07/22 07:56:27;;;;;;;10.68;5.60;;;;;;;29.76;nan;-24639.28;4979990;28;20189;-64
2022/07/22 07:58:53;;;;;;;9.80;5.60;;;;;;;30.29;nan;-24653.59;4979091;28;20184;-63
2022/07/22 08:01:19;;;;;;;11.15;5.85;;;;;;;30.29;nan;-24653.59;4980534;28;20180;-61
2022/07/22 08:03:44;;;;;;;9.00;5.60;;;;;;;30.14;nan;-24649.50;4979269;28;20216;-62
2022/07/22 08:06:10;;;;;;;9.98;5.90;;;;;;;30.05;nan;-24647.03;4977183;28;20209;-63
2022/07/22 08:08:35;;;;;;;12.32;6.05;;;;;;;30.44;nan;-24657.53;4980350;28;20570;-63
2022/07/22 08:11:01;;;;;;;9.20;5.35;;;;;;;30.70;nan;-24664.50;4978305;28;20574;-62
2022/07/22 08:13:26;;;;;;;8.15;5.38;;;;;;;31.02;nan;-24673.06;4980838;28;20283;-62
2022/07/22 08:15:52;;;;;;;8.82;5.90;;;;;;;31.16;nan;-24676.75;4978098;28;20568;-63
2022/07/22 08:18:18;;;;;;;10.35;6.10;;;;;;;31.50;nan;-24685.97;4979651;28;20176;-63
2022/07/22 08:20:43;;;;;;;10.38;6.53;;;;;;;31.50;nan;-24685.97;4979348;28;20178;-63
2022/07/22 08:23:09;;;;;;;7.93;6.13;;;;;;;31.26;nan;-24679.47;4978268;28;20565;-61
2022/07/22 08:25:34;;;;;;;10.80;6.22;;;;;;;31.26;nan;-24679.47;4982038;28;20184;-64
2022/07/22 08:28:00;;;;;;;12.05;6.97;;;;;;;25.86;nan;-24533.53;4978101;28;20663;-63
2022/07/22 08:30:28;;;;;;;11.40;6.50;;;;;;;31.38;nan;-24682.88;4980367;28;20205;-62
2022/07/22 08:32:54;;;;;;;9.45;6.25;;;;;;;31.38;nan;-24682.88;4980063;28;20189;-62
2022/07/22 08:35:20;;;;;;;10.05;6.47;;;;;;;31.66;nan;-24690.22;4979562;28;20575;-62
2022/07/22 08:37:47;;;;;;;10.35;6.55;;;;;;;32.00;nan;-24699.56;4976361;28;20294;-63
2022/07/22 08:40:15;;;;;;;9.05;6.38;;;;;;;32.20;nan;-24704.88;4978688;28;20232;-61
2022/07/22 08:42:42;;;;;;;10.43;6.53;;;;;;;32.05;nan;-24700.78;4977866;28;20253;-62
2022/07/22 08:45:09;;;;;;;15.35;8.77;;;;;;;31.95;nan;-24698.09;4977106;28;20251;-63
2022/07/22 08:47:35;;;;;;;9.73;7.18;;;;;;;31.95;nan;-24698.09;4980347;28;20227;-62
2022/07/22 08:50:01;;;;;;;8.85;6.18;;;;;;;31.71;nan;-24691.69;4977673;28;20224;-61
2022/07/22 08:52:26;;;;;;;7.88;5.90;;;;;;;31.40;nan;-24683.28;4979628;28;20189;-62
2022/07/22 08:54:52;;;;;;;9.45;5.45;;;;;;;31.61;nan;-24688.84;4977661;28;20176;-62
2022/07/22 08:57:18;;;;;;;9.77;6.43;;;;;;;31.55;nan;-24687.50;4978725;28;20183;-62
2022/07/22 08:59:53;;;;;;;9.20;5.63;;;;;;;31.54;nan;-24687.06;4976978;28;20172;-61
2022/07/22 09:02:19;;;;;;;8.82;5.22;;;;;;;31.88;nan;-24696.19;4978671;28;20234;-63
2022/07/22 09:05:02;;;;;;;9.15;5.82;;;;;;;31.96;nan;-24698.50;4975693;28;20254;-64
2022/07/22 09:07:34;;;;;;;10.63;5.93;;;;;;;31.90;nan;-24696.72;4973354;28;20261;-64
2022/07/22 09:10:01;;;;;;;11.07;6.07;;;;;;;31.95;nan;-24698.22;4972441;28;20210;-63
2022/07/22 09:12:31;;;;;;;8.32;5.95;;;;;;;32.23;nan;-24705.56;4972356;28;20630;-64
2022/07/22 09:14:58;;;;;;;8.77;5.43;;;;;;;32.23;nan;-24705.56;4975167;28;20177;-63
2022/07/22 09:17:27;;;;;;;7.95;5.57;;;;;;;32.16;nan;-24703.78;4971997;28;20183;-62
2022/07/22 09:19:54;;;;;;;10.13;5.85;;;;;;;32.05;nan;-24700.78;4974681;28;20185;-62
2022/07/22 09:22:42;;;;;;;8.88;5.80;;;;;;;31.78;nan;-24693.47;4972682;28;20667;-63
2022/07/22 09:25:26;;;;;;;8.75;5.72;;;;;;;31.72;nan;-24691.84;4976995;28;20648;-64
2022/07/22 09:28:09;;;;;;;8.45;5.53;;;;;;;32.26;nan;-24706.50;4975536;28;20488;-62
2022/07/22 09:30:38;;;;;;;9.82;5.82;;;;;;;32.59;nan;-24715.19;4977176;28;20211;-62
2022/07/22 09:33:05;;;;;;;10.13;6.03;;;;;;;32.42;nan;-24710.72;4974651;28;20196;-62
2022/07/22 09:35:31;;;;;;;8.80;6.05;;;;;;;32.58;nan;-24715.06;4977157;28;20183;-61
2022/07/22 09:38:17;;;;;;;11.07;6.03;;;;;;;22.07;nan;-24430.19;4976952;28;20581;-63
2022/07/22 09:40:45;;;;;;;11.75;6.30;;;;;;;32.03;nan;-24700.25;4976388;28;20216;-61
2022/07/22 09:43:19;;;;;;;14.75;7.28;;;;;;;32.03;nan;-24700.25;4981423;28;20198;-61
2022/07/22 09:45:59;;;;;;;10.25;6.57;;;;;;;32.20;nan;-24704.88;4976214;28;20185;-63
2022/07/22 09:48:25;;;;;;;9.80;6.50;;;;;;;32.25;nan;-24706.22;4978424;28;20187;-63
2022/07/22 09:50:53;;;;;;;11.93;7.22;;;;;;;32.55;nan;-24714.09;4976540;28;20227;-63
2022/07/22 09:53:22;;;;;;;10.98;7.15;;;;;;;32.21;nan;-24705.16;4976592;28;20179;-65
2022/07/22 09:55:47;;;;;;;13.38;7.88;;;;;;;33.00;nan;-24726.19;4981044;28;20561;-63
2022/07/22 09:58:13;;;;;;;13.00;8.30;;;;;;;33.04;nan;-24727.41;4979970;28;20185;-64
2022/07/22 10:00:40;;;;;;;13.20;7.97;;;;;;;32.56;nan;-24714.50;4980150;28;20192;-63
2022/07/22 10:03:09;;;;;;;12.93;7.35;;;;;;;31.91;nan;-24697.00;4983582;28;20267;-62
2022/07/22 10:05:37;;;;;;;11.40;7.63;;;;;;;32.63;nan;-24716.41;4980249;28;20209;-62
2022/07/22 10:08:05;;;;;;;13.50;7.30;;;;;;;32.47;nan;-24711.94;4981594;28;20188;-62
2022/07/22 10:10:32;;;;;;;11.45;7.93;;;;;;;32.71;nan;-24718.44;4982717;28;20231;-61
2022/07/22 10:12:59;;;;;;;12.85;7.38;;;;;;;32.63;nan;-24716.28;4980912;28;20261;-63
2022/07/22 10:15:27;;;;;;;13.63;8.98;;;;;;;32.63;nan;-24716.28;4982879;28;20674;-64
2022/07/22 10:17:55;;;;;;;14.43;8.35;;;;;;;32.59;nan;-24715.31;4981059;28;20581;-63
2022/07/22 10:20:23;;;;;;;13.63;8.50;;;;;;;32.76;nan;-24719.94;4982835;28;20207;-61
2022/07/22 10:22:51;;;;;;;14.20;8.32;;;;;;;32.84;nan;-24721.97;4980700;28;20684;-62
2022/07/22 10:25:20;;;;;;;14.60;8.38;;;;;;;32.53;nan;-24713.69;4981167;28;20184;-62
2022/07/22 10:27:52;;;;;;;14.45;8.20;;;;;;;32.64;nan;-24716.56;4980545;28;20581;-61
2022/07/22 10:30:29;;;;;;;10.27;7.20;;;;;;;32.99;nan;-24725.91;4982212;28;20219;-63
2022/07/22 10:33:08;;;;;;;12.48;7.45;;;;;;;32.88;nan;-24722.94;4979333;28;20176;-61
2022/07/22 10:35:52;;;;;;;12.27;8.13;;;;;;;32.91;nan;-24723.72;4984009;28;20675;-61
2022/07/22 10:38:19;;;;;;;11.25;7.80;;;;;;;32.91;nan;-24723.72;4982233;28;20282;-62
2022/07/22 10:40:57;;;;;;;16.65;8.82;;;;;;;32.61;nan;-24715.88;4979972;28;20594;-60
2022/07/22 10:43:27;;;;;;;14.50;7.88;;;;;;;33.01;nan;-24726.44;4980759;28;20613;-64
2022/07/22 10:45:58;;;;;;;10.70;7.32;;;;;;;33.25;nan;-24733.09;4979815;28;20267;-63
2022/07/22 10:48:32;;;;;;;11.63;7.38;;;;;;;32.93;nan;-24724.28;4983788;28;20183;-62
2022/07/22 10:51:14;;;;;;;11.57;6.63;;;;;;;33.15;nan;-24730.25;4980165;28;20223;-62
2022/07/22 10:53:56;;;;;;;11.23;7.50;;;;;;;33.47;nan;-24738.91;4979648;28;20250;-63
2022/07/22 10:56:30;;;;;;;13.45;8.20;;;;;;;33.52;nan;-24740.13;4982093;28;20191;-63
2022/07/22 10:59:12;;;;;;;14.82;7.22;;;;;;;33.59;nan;-24742.16;4980451;28;20189;-61
2022/07/22 11:01:47;;;;;;;11.02;6.45;;;;;;;33.62;nan;-24753.94;4979967;28;20267;-61
2022/07/22 11:04:24;;;;;;;18.10;7.93;;;;;;;34.03;nan;-24753.94;4981949;28;20259;-62
2022/07/22 11:06:52;;;;;;;10.10;6.82;;;;;;;34.26;nan;-24760.03;4979263;28;20184;-63
2022/07/22 11:09:18;;;;;;;11.77;7.50;;;;;;;;;;4981619;28;20581;-61
2022/07/22 11:11:45;;;;;;;10.48;6.95;;;;;;;;;;4979409;28;20578;-63
2022/07/22 11:14:26;;;;;;;11.23;7.15;;;;;;;33.94;nan;-24751.50;4981544;28;20191;-63
2022/07/22 11:17:13;;;;;;;12.82;6.57;;;;;;;34.12;nan;-24756.22;4977634;28;20352;-60
2022/07/22 11:19:40;;;;;;;12.98;6.75;;;;;;;34.05;nan;-24754.34;4979576;28;20615;-61
2022/07/22 11:22:10;;;;;;;10.52;6.90;;;;;;;34.26;nan;-24760.03;4979199;28;20652;-61
2022/07/22 11:24:38;;;;;;;10.25;7.00;;;;;;;34.51;nan;-24766.63;4977291;28;20212;-63
2022/07/22 11:27:08;;;;;;;12.13;6.50;;;;;;;34.52;nan;-24767.03;4980385;28;20211;-61
2022/07/22 11:29:40;;;;;;;8.10;5.45;;;;;;;33.95;nan;-24751.63;4979812;28;20212;-61
2022/07/22 11:32:08;;;;;;;7.78;5.00;;;;;;;33.95;nan;-24751.63;4980528;28;20180;-62
2022/07/22 11:34:37;;;;;;;7.03;4.60;;;;;;;33.79;nan;-24747.44;4979755;28;20761;-63
2022/07/22 11:37:03;;;;;;;11.10;4.43;;;;;;;33.78;nan;-24747.16;4980422;28;20235;-63
2022/07/22 11:39:30;;;;;;;6.75;4.28;;;;;;;34.17;nan;-24757.72;4979582;28;20224;-60
2022/07/22 11:41:58;;;;;;;7.57;4.00;;;;;;;34.09;nan;-24755.56;4979387;28;20181;-64